createdAt,value
2022-09-04T00:05:28.527Z,61.24
2022-09-04T00:10:24.515Z,61.14
2022-09-04T00:12:26.728Z,61.14
2022-09-04T00:13:52.309Z,61.14
2022-09-04T00:15:21.206Z,61.14
2022-09-04T00:16:50.117Z,61.04
2022-09-04T00:19:17.690Z,61.07
2022-09-04T00:21:16.938Z,61.87
2022-09-04T00:25:10.260Z,61.67
2022-09-04T00:30:06.590Z,61.67
2022-09-04T00:31:36.470Z,61.57
2022-09-04T00:33:05.327Z,61.77
2022-09-04T00:37:28.023Z,61.98
2022-09-04T00:41:23.730Z,62.01
2022-09-04T00:43:51.439Z,62.01
2022-09-04T00:48:13.903Z,62.30
2022-09-04T00:54:03.010Z,62.71
2022-09-04T00:56:00.764Z,62.94
2022-09-04T01:00:54.117Z,63.85
2022-09-04T01:03:51.638Z,62.94
2022-09-04T01:06:19.413Z,63.54
2022-09-04T01:07:48.292Z,63.24
2022-09-04T01:10:15.939Z,63.65
2022-09-04T01:12:44.246Z,63.34
2022-09-04T01:16:10.328Z,63.87
2022-09-04T01:18:37.162Z,63.57
2022-09-04T01:20:35.411Z,64.18
2022-09-04T01:24:02.371Z,63.98
2022-09-04T01:27:00.076Z,64.28
2022-09-04T01:29:56.614Z,64.89
2022-09-04T01:34:21.616Z,64.48
2022-09-04T01:35:51.486Z,64.38
2022-09-04T01:38:19.418Z,64.41
2022-09-04T01:45:08.490Z,65.12
2022-09-04T01:47:07.372Z,64.81
2022-09-04T01:48:36.557Z,64.61
2022-09-04T01:51:32.232Z,64.92
2022-09-04T01:53:02.256Z,65.01
2022-09-04T02:00:24.966Z,65.25
2022-09-04T02:02:21.286Z,65.65
2022-09-04T02:03:50.141Z,65.95
2022-09-04T02:05:48.888Z,65.25
2022-09-04T02:07:48.233Z,65.55
2022-09-04T02:13:58.614Z,65.85
2022-09-04T02:16:56.267Z,65.95
2022-09-04T02:18:55.073Z,65.95
2022-09-04T02:21:22.781Z,66.05
2022-09-04T02:23:21.836Z,66.19
2022-09-04T02:25:19.617Z,66.69
2022-09-04T02:36:50.914Z,67.10
2022-09-04T02:41:45.816Z,67.50
2022-09-04T02:45:39.750Z,66.89
2022-09-04T02:47:37.511Z,66.93
2022-09-04T02:50:33.198Z,67.23
2022-09-04T02:52:02.123Z,67.53
2022-09-04T02:53:31.979Z,67.73
2022-09-04T02:55:00.915Z,68.13
2022-09-04T02:57:57.666Z,67.53
2022-09-04T03:03:11.938Z,68.24
2022-09-04T03:07:06.999Z,68.13
2022-09-04T03:09:05.805Z,68.24
2022-09-04T03:10:34.782Z,68.64
2022-09-04T03:14:00.451Z,68.84
2022-09-04T03:15:29.331Z,68.17
2022-09-04T03:20:20.563Z,68.77
2022-09-04T03:21:49.765Z,68.98
2022-09-04T03:25:35.585Z,69.28
2022-09-04T03:29:20.211Z,69.48
2022-09-04T03:31:37.871Z,69.38
2022-09-04T03:34:34.353Z,69.28
2022-09-04T03:37:31.121Z,69.21
2022-09-04T03:47:43.342Z,69.42
2022-09-04T03:49:11.792Z,69.62
2022-09-04T03:51:39.498Z,69.21
2022-09-04T03:57:29.286Z,69.31
2022-09-04T03:59:27.127Z,69.42
2022-09-04T04:00:57.309Z,69.31
2022-09-04T04:03:55.668Z,69.31
2022-09-04T04:05:54.788Z,69.62
2022-09-04T04:07:24.654Z,69.51
2022-09-04T04:13:15.894Z,69.42
2022-09-04T04:14:45.984Z,69.55
2022-09-04T04:16:15.876Z,69.95
2022-09-04T04:17:46.164Z,69.85
2022-09-04T04:19:15.936Z,69.65
2022-09-04T04:22:51.856Z,69.85
2022-09-04T04:30:30.436Z,70.15
2022-09-04T04:33:17.971Z,70.46
2022-09-04T04:34:47.311Z,70.56
2022-09-04T04:36:45.746Z,70.76
2022-09-04T04:38:45.036Z,70.66
2022-09-04T04:40:15.007Z,70.25
2022-09-04T04:43:40.918Z,70.05
2022-09-04T04:45:09.820Z,70.05
2022-09-04T04:48:06.858Z,70.56
2022-09-04T04:50:33.469Z,70.76
2022-09-04T04:53:02.463Z,70.86
2022-09-04T04:58:27.811Z,70.69
2022-09-04T05:02:23.688Z,70.69
2022-09-04T05:06:09.277Z,70.79
2022-09-04T05:07:38.131Z,70.89
2022-09-04T05:09:07.048Z,71.00
2022-09-04T05:12:33.183Z,71.50
2022-09-04T05:14:03.105Z,71.50
2022-09-04T05:16:09.813Z,71.09
2022-09-04T05:18:28.922Z,70.89
2022-09-04T05:24:51.895Z,71.30
2022-09-04T05:26:50.996Z,71.30
2022-09-04T05:29:46.959Z,71.60
2022-09-04T05:32:16.429Z,71.30
2022-09-04T05:34:13.739Z,71.70
2022-09-04T05:35:42.696Z,71.50
2022-09-04T05:37:11.957Z,71.80
2022-09-04T05:38:40.552Z,71.70
2022-09-04T05:40:39.366Z,71.30
2022-09-04T05:46:23.943Z,71.06
2022-09-04T05:48:51.088Z,71.17
2022-09-04T05:50:21.349Z,71.06
2022-09-04T05:51:49.034Z,70.96
2022-09-04T05:53:17.903Z,70.76
2022-09-04T05:54:46.769Z,71.06
2022-09-04T05:56:15.753Z,70.96
2022-09-04T05:58:13.735Z,70.86
2022-09-04T05:59:44.158Z,71.26
2022-09-04T06:05:34.819Z,70.96
2022-09-04T06:07:03.678Z,70.83
2022-09-04T06:10:30.225Z,70.62
2022-09-04T06:12:30.070Z,70.32
2022-09-04T06:14:00.024Z,70.12
2022-09-04T06:16:55.776Z,70.42
2022-09-04T06:19:51.489Z,70.53
2022-09-04T06:23:17.475Z,70.49
2022-09-04T06:24:45.894Z,70.19
2022-09-04T06:28:41.774Z,70.09
2022-09-04T06:30:10.633Z,70.09
2022-09-04T06:33:26.432Z,70.49
2022-09-04T06:39:16.712Z,69.95
2022-09-04T06:42:13.725Z,70.06
2022-09-04T06:44:40.404Z,69.24
2022-09-04T06:47:08.115Z,69.52
2022-09-04T06:49:34.742Z,69.21
2022-09-04T06:51:03.622Z,68.91
2022-09-04T06:57:55.734Z,68.88
2022-09-04T06:59:53.540Z,69.38
2022-09-04T07:01:22.450Z,68.77
2022-09-04T07:02:52.302Z,68.68
2022-09-04T07:04:22.271Z,68.44
2022-09-04T07:12:11.250Z,68.31
2022-09-04T07:14:09.137Z,68.01
2022-09-04T07:17:04.939Z,68.41
2022-09-04T07:25:25.941Z,68.28
2022-09-04T07:27:23.679Z,69.05
2022-09-04T07:29:42.461Z,68.35
2022-09-04T07:31:11.381Z,68.65
2022-09-04T07:36:36.527Z,68.62
2022-09-04T07:38:35.223Z,68.91
2022-09-04T07:40:32.336Z,70.09
2022-09-04T07:44:56.842Z,69.09
2022-09-04T07:47:24.475Z,69.25
2022-09-04T07:49:51.103Z,68.75
2022-09-04T07:53:48.678Z,69.22
2022-09-04T08:01:59.736Z,70.29
2022-09-04T08:05:25.440Z,70.16
2022-09-04T08:06:55.318Z,69.85
2022-09-04T08:09:50.804Z,70.36
2022-09-04T08:12:18.278Z,69.62
2022-09-04T08:13:47.119Z,69.62
2022-09-04T08:15:16.008Z,69.82
2022-09-04T08:16:44.891Z,70.23
2022-09-04T08:19:02.463Z,70.79
2022-09-04T08:20:31.262Z,70.89
2022-09-04T08:23:57.958Z,70.39
2022-09-04T08:25:26.804Z,71.26
2022-09-04T08:26:56.703Z,71.06
2022-09-04T08:28:55.483Z,71.26
2022-09-04T08:33:49.887Z,70.83
2022-09-04T08:38:16.582Z,70.50
2022-09-04T08:39:46.470Z,70.09
2022-09-04T08:41:16.361Z,70.50
2022-09-04T08:44:12.106Z,70.66
2022-09-04T08:46:39.464Z,70.46
2022-09-04T08:48:39.230Z,69.66
2022-09-04T08:52:33.981Z,69.73
2022-09-04T08:55:58.648Z,70.23
2022-09-04T08:58:25.447Z,70.49
2022-09-04T09:04:21.960Z,70.26
2022-09-04T09:05:51.777Z,70.36
2022-09-04T09:07:49.684Z,68.46
2022-09-04T09:10:17.567Z,69.56
2022-09-04T09:14:12.337Z,69.23
2022-09-04T09:17:38.822Z,67.83
2022-09-04T09:21:34.064Z,68.79
2022-09-04T09:31:50.266Z,66.36
2022-09-04T09:39:09.151Z,66.63
2022-09-04T09:41:08.128Z,66.90
2022-09-04T09:52:19.417Z,65.57
2022-09-04T09:54:49.477Z,64.64
2022-09-04T09:56:18.789Z,64.15
2022-09-04T09:59:13.986Z,63.32
2022-09-04T10:01:12.899Z,63.12
2022-09-04T10:02:42.717Z,62.92
2022-09-04T10:04:11.654Z,62.52
2022-09-04T10:08:08.165Z,63.09
2022-09-04T10:10:08.072Z,65.25
2022-09-04T10:12:06.086Z,62.56
2022-09-04T10:14:04.972Z,64.52
2022-09-04T10:17:30.524Z,61.71
2022-09-04T10:19:00.565Z,60.82
2022-09-04T10:20:29.402Z,60.69
2022-09-04T10:21:58.335Z,60.88
2022-09-04T10:23:27.255Z,59.96
2022-09-04T10:26:53.773Z,61.52
2022-09-04T10:28:51.598Z,61.29
2022-09-04T10:34:47.058Z,58.26
2022-09-04T10:39:40.547Z,57.74
2022-09-04T10:41:38.618Z,56.85
2022-09-04T10:44:34.902Z,56.52
2022-09-04T10:46:03.901Z,56.32
2022-09-04T10:47:33.034Z,56.62
2022-09-04T10:51:57.169Z,55.01
2022-09-04T10:53:31.079Z,54.22
2022-09-04T10:54:56.302Z,54.52
2022-09-04T10:56:25.230Z,56.59
2022-09-04T10:57:54.209Z,56.27
2022-09-04T11:03:45.334Z,55.55
2022-09-04T11:20:18.215Z,51.72
2022-09-04T11:23:07.653Z,51.82
2022-09-04T11:31:20.780Z,49.99
2022-09-04T11:32:52.880Z,50.59
2022-09-04T11:34:27.951Z,50.81
2022-09-04T11:36:29.305Z,50.21
2022-09-04T11:40:48.256Z,50.38
2022-09-04T11:44:16.021Z,50.38
2022-09-04T11:46:15.117Z,49.87
2022-09-04T11:57:26.942Z,49.65
2022-09-04T11:59:29.205Z,49.38
2022-09-04T12:01:08.540Z,50.19
2022-09-04T12:05:25.395Z,50.90
2022-09-04T12:11:09.837Z,51.82
2022-09-04T12:18:55.026Z,50.88
2022-09-04T12:20:47.062Z,52.56
2022-09-04T12:23:55.348Z,51.75
2022-09-04T12:25:25.564Z,52.41
2022-09-04T12:30:52.667Z,49.20
2022-09-04T12:34:07.981Z,49.57
2022-09-04T12:36:42.220Z,49.55
2022-09-04T12:39:25.191Z,46.77
2022-09-04T12:40:55.429Z,48.14
2022-09-04T12:42:27.528Z,47.46
2022-09-04T12:44:19.776Z,48.71
2022-09-04T12:46:18.707Z,49.11
2022-09-04T12:52:16.797Z,46.72
2022-09-04T12:54:21.162Z,47.09
2022-09-04T12:59:52.848Z,45.52
2022-09-04T13:02:12.059Z,44.05
2022-09-04T13:04:09.617Z,45.52
2022-09-04T13:07:11.049Z,43.85
2022-09-04T13:09:53.451Z,44.46
2022-09-04T13:12:10.804Z,45.25
2022-09-04T13:14:02.968Z,45.35
2022-09-04T13:15:32.941Z,44.46
2022-09-04T13:18:28.426Z,44.76
2022-09-04T13:20:28.946Z,45.84
2022-09-04T13:24:39.929Z,44.95
2022-09-04T13:27:35.145Z,46.33
2022-09-04T13:30:08.005Z,46.33
2022-09-04T13:31:39.932Z,45.15
2022-09-04T13:34:27.577Z,45.17
2022-09-04T13:36:02.408Z,46.87
2022-09-04T13:37:32.622Z,46.77
2022-09-04T13:39:30.024Z,47.88
2022-09-04T13:42:59.268Z,47.60
2022-09-04T13:45:17.769Z,48.41
2022-09-04T13:47:32.203Z,49.20
2022-09-04T13:50:25.527Z,48.44
2022-09-04T13:51:53.608Z,48.74
2022-09-04T13:54:53.448Z,49.50
2022-09-04T13:57:43.180Z,48.24
2022-09-04T13:59:14.956Z,49.13
2022-09-04T14:06:19.355Z,49.03
2022-09-04T14:08:25.260Z,49.52
2022-09-04T14:10:32.097Z,50.02
2022-09-04T14:13:37.798Z,48.24
2022-09-04T14:15:49.167Z,48.14
2022-09-04T14:19:10.000Z,48.74
2022-09-04T14:22:34.725Z,48.24
2022-09-04T14:30:52.809Z,47.92
2022-09-04T14:32:22.311Z,47.63
2022-09-04T14:34:33.771Z,47.92
2022-09-04T14:42:51.338Z,48.51
2022-09-04T14:45:36.875Z,48.63
2022-09-04T14:47:06.872Z,48.04
2022-09-04T14:48:56.751Z,51.00
2022-09-04T14:52:15.124Z,49.03
2022-09-04T14:53:45.190Z,48.14
2022-09-04T14:58:02.483Z,49.33
2022-09-04T14:59:47.384Z,51.30
2022-09-04T15:03:15.914Z,50.12
2022-09-04T15:06:04.566Z,48.44
2022-09-04T15:08:45.739Z,49.15
2022-09-04T15:12:30.772Z,50.04
2022-09-04T15:14:18.689Z,51.23
2022-09-04T15:16:10.487Z,50.85
2022-09-04T15:17:52.595Z,49.67
2022-09-04T15:19:23.405Z,50.36
2022-09-04T15:20:54.428Z,50.26
2022-09-04T15:22:25.800Z,49.87
2022-09-04T15:24:26.674Z,49.30
2022-09-04T15:26:04.485Z,50.09
2022-09-04T15:27:40.800Z,49.40
2022-09-04T15:29:58.220Z,48.31
2022-09-04T15:31:46.242Z,49.89
2022-09-04T15:33:29.236Z,49.89
2022-09-04T15:34:50.996Z,49.49
2022-09-04T15:36:40.812Z,50.38
2022-09-04T15:38:11.752Z,50.59
2022-09-04T15:39:45.727Z,51.07
2022-09-04T15:41:16.938Z,51.47
2022-09-04T15:43:22.449Z,50.09
2022-09-04T15:44:33.573Z,50.78
2022-09-04T15:46:25.371Z,50.59
2022-09-04T15:47:54.304Z,50.29
2022-09-04T15:54:02.695Z,48.02
2022-09-04T15:55:33.033Z,49.10
2022-09-04T16:14:33.455Z,50.90
2022-09-04T16:17:02.812Z,49.91
2022-09-04T16:19:12.301Z,50.51
2022-09-04T16:22:19.552Z,51.00
2022-09-04T16:25:00.852Z,50.71
2022-09-04T16:27:44.222Z,51.10
2022-09-04T16:29:16.794Z,52.09
2022-09-04T16:30:49.954Z,52.29
2022-09-04T16:36:26.884Z,50.24
2022-09-04T16:39:27.242Z,50.93
2022-09-04T16:41:38.340Z,50.73
2022-09-04T16:43:06.580Z,50.53
2022-09-04T16:44:56.344Z,50.13
2022-09-04T16:48:34.000Z,51.54
2022-09-04T16:52:03.398Z,50.46
2022-09-04T16:54:28.833Z,50.95
2022-09-04T16:59:17.005Z,51.07
2022-09-04T17:01:51.034Z,51.18
2022-09-04T17:06:33.114Z,52.07
2022-09-04T17:08:26.464Z,52.26
2022-09-04T17:14:24.506Z,51.87
2022-09-04T17:15:54.854Z,52.19
2022-09-04T17:20:16.025Z,52.19
2022-09-04T17:28:11.467Z,52.29
2022-09-04T17:29:08.056Z,52.78
2022-09-04T17:40:53.465Z,53.38
2022-09-04T17:44:27.275Z,53.11
2022-09-04T17:45:57.156Z,53.11
2022-09-04T17:47:53.256Z,53.01
2022-09-04T17:52:36.212Z,53.31
2022-09-04T17:54:26.565Z,55.58
2022-09-04T17:55:55.560Z,55.49
2022-09-04T17:58:16.078Z,56.30
2022-09-04T17:59:51.588Z,56.11
2022-09-04T18:03:27.935Z,55.41
2022-09-04T18:05:55.774Z,54.22
2022-09-04T18:14:08.145Z,55.83
2022-09-04T18:15:42.702Z,56.23
2022-09-04T18:17:13.994Z,56.73
2022-09-04T18:24:46.477Z,57.45
2022-09-04T18:26:42.036Z,57.45
2022-09-04T18:37:20.117Z,58.07
2022-09-04T18:37:25.848Z,58.67
2022-09-04T18:37:40.499Z,58.77
2022-09-04T18:38:44.631Z,59.00
2022-09-04T18:40:43.745Z,59.30
2022-09-04T18:50:24.612Z,59.79
2022-09-04T18:50:29.499Z,59.82
2022-09-04T18:51:15.123Z,60.42
2022-09-04T18:52:45.405Z,60.61
2022-09-04T18:54:22.253Z,61.14
2022-09-04T18:56:54.184Z,61.74
2022-09-04T18:58:44.820Z,61.44
2022-09-04T19:01:06.114Z,61.17
2022-09-04T19:05:14.440Z,61.57
2022-09-04T19:12:16.416Z,62.99
2022-09-04T19:13:49.844Z,62.89
2022-09-04T19:16:14.514Z,63.29
2022-09-04T19:17:42.284Z,63.09
2022-09-04T19:22:13.693Z,63.52
2022-09-04T19:23:44.803Z,63.62
2022-09-04T19:25:34.304Z,63.32
2022-09-04T19:27:33.924Z,63.52
2022-09-04T19:30:50.923Z,63.82
2022-09-04T19:32:20.637Z,64.12
2022-09-04T19:34:11.315Z,64.31
2022-09-04T19:39:11.501Z,64.01
2022-09-04T19:46:17.428Z,63.95
2022-09-04T19:46:43.411Z,64.04
2022-09-04T19:53:20.030Z,64.54
2022-09-04T19:54:57.845Z,64.37
2022-09-04T19:57:56.912Z,64.78
2022-09-04T19:59:40.106Z,65.17
2022-09-04T20:01:09.165Z,64.97
2022-09-04T20:05:12.125Z,65.41
2022-09-04T20:07:27.590Z,65.70
2022-09-04T20:10:18.575Z,65.80
2022-09-04T20:14:15.695Z,66.33
2022-09-04T20:16:08.437Z,66.13
2022-09-04T20:18:39.734Z,65.83
2022-09-04T20:20:40.173Z,66.53
2022-09-04T20:25:11.530Z,66.33
2022-09-04T20:30:12.322Z,66.86
2022-09-04T20:32:43.208Z,66.66
2022-09-04T20:35:13.826Z,66.77
2022-09-04T20:40:49.403Z,66.86
2022-09-04T20:48:36.303Z,66.17
2022-09-04T20:52:42.143Z,65.97
2022-09-04T20:52:58.421Z,65.77
2022-09-04T20:53:00.035Z,65.67
2022-09-04T20:53:45.368Z,65.26
2022-09-04T21:03:16.995Z,64.57
2022-09-04T21:03:27.908Z,64.57
2022-09-04T21:06:31.844Z,64.67
2022-09-04T21:08:59.990Z,64.57
2022-09-04T21:15:40.130Z,64.57
2022-09-04T21:19:31.130Z,64.30
2022-09-04T21:22:30.332Z,64.10
2022-09-04T21:26:58.111Z,64.00
2022-09-04T21:28:31.173Z,64.00
2022-09-04T21:36:56.438Z,64.00
2022-09-04T21:38:46.056Z,63.80
2022-09-04T21:41:19.039Z,63.90
2022-09-04T21:43:09.876Z,63.80
2022-09-04T21:47:33.974Z,64.13
2022-09-04T21:49:55.776Z,63.93
2022-09-04T21:51:28.806Z,64.03
2022-09-04T21:52:55.921Z,64.03
2022-09-04T21:54:37.934Z,64.23
2022-09-04T22:01:16.790Z,64.33
2022-09-04T22:02:45.492Z,64.33
2022-09-04T22:04:06.508Z,64.66
2022-09-04T22:10:08.395Z,64.76
2022-09-04T22:13:31.762Z,64.76
2022-09-04T22:16:23.841Z,65.26
2022-09-04T22:19:39.294Z,65.49
2022-09-04T22:22:37.465Z,65.49
2022-09-04T22:24:41.081Z,65.49
2022-09-04T22:27:19.797Z,65.49
2022-09-04T22:29:54.288Z,65.69
2022-09-04T22:33:09.453Z,65.79
2022-09-04T22:35:48.858Z,65.72
2022-09-04T22:44:37.461Z,66.02
2022-09-04T22:47:32.830Z,65.83
2022-09-04T22:49:12.973Z,65.92
2022-09-04T22:50:48.762Z,66.22
2022-09-04T22:52:44.084Z,66.22
2022-09-04T22:56:23.370Z,66.32
2022-09-04T22:57:24.786Z,66.42
2022-09-04T22:59:26.621Z,66.32
2022-09-04T23:03:22.199Z,66.25
2022-09-04T23:13:10.832Z,66.75
2022-09-04T23:13:56.568Z,66.55
2022-09-04T23:15:26.166Z,66.66
2022-09-04T23:26:44.649Z,66.49
2022-09-04T23:26:50.539Z,66.69
2022-09-04T23:27:11.825Z,66.28
2022-09-04T23:31:29.160Z,66.39
2022-09-04T23:33:07.134Z,66.19
2022-09-04T23:34:40.089Z,66.39
2022-09-04T23:39:17.650Z,66.39
2022-09-04T23:41:06.036Z,66.49
2022-09-04T23:43:36.500Z,66.39
2022-09-04T23:47:48.612Z,66.49
2022-09-04T23:50:15.261Z,66.28
2022-09-04T23:56:56.191Z,66.78
